sensor_id;sensor_type;location;lat;lon;timestamp;P1;durP1;ratioP1;P2;durP2;ratioP2
39020;SDS011;25188;51.958;5.842;2022-09-27T00:01:36;5.67;;;1.00;;
39020;SDS011;25188;51.958;5.842;2022-09-27T00:04:02;7.07;;;0.60;;
39020;SDS011;25188;51.958;5.842;2022-09-27T00:06:28;6.33;;;1.00;;
39020;SDS011;25188;51.958;5.842;2022-09-27T00:08:55;6.17;;;1.00;;
39020;SDS011;25188;51.958;5.842;2022-09-27T00:13:53;8.23;;;1.17;;
39020;SDS011;25188;51.958;5.842;2022-09-27T00:16:21;6.32;;;0.90;;
39020;SDS011;25188;51.958;5.842;2022-09-27T00:18:48;7.77;;;1.20;;
39020;SDS011;25188;51.958;5.842;2022-09-27T00:21:14;9.18;;;1.23;;
39020;SDS011;25188;51.958;5.842;2022-09-27T00:23:39;8.10;;;0.95;;
39020;SDS011;25188;51.958;5.842;2022-09-27T00:26:05;7.65;;;1.65;;
39020;SDS011;25188;51.958;5.842;2022-09-27T00:28:32;8.63;;;1.50;;
39020;SDS011;25188;51.958;5.842;2022-09-27T00:30:58;8.07;;;1.30;;
39020;SDS011;25188;51.958;5.842;2022-09-27T00:33:25;5.77;;;0.87;;
39020;SDS011;25188;51.958;5.842;2022-09-27T00:35:51;5.90;;;0.97;;
39020;SDS011;25188;51.958;5.842;2022-09-27T00:38:17;7.57;;;1.00;;
39020;SDS011;25188;51.958;5.842;2022-09-27T00:40:43;7.93;;;1.23;;
39020;SDS011;25188;51.958;5.842;2022-09-27T00:43:20;6.77;;;1.20;;
39020;SDS011;25188;51.958;5.842;2022-09-27T00:45:49;4.83;;;0.70;;
39020;SDS011;25188;51.958;5.842;2022-09-27T00:48:20;6.57;;;0.70;;
39020;SDS011;25188;51.958;5.842;2022-09-27T00:50:49;3.00;;;0.40;;
39020;SDS011;25188;51.958;5.842;2022-09-27T00:53:23;2.40;;;0.37;;
39020;SDS011;25188;51.958;5.842;2022-09-27T00:56:04;2.70;;;0.50;;
39020;SDS011;25188;51.958;5.842;2022-09-27T00:58:41;4.53;;;0.60;;
39020;SDS011;25188;51.958;5.842;2022-09-27T01:01:12;9.17;;;0.83;;
39020;SDS011;25188;51.958;5.842;2022-09-27T01:03:51;2.70;;;0.60;;
39020;SDS011;25188;51.958;5.842;2022-09-27T01:06:30;2.67;;;0.53;;
39020;SDS011;25188;51.958;5.842;2022-09-27T01:08:55;8.98;;;0.80;;
39020;SDS011;25188;51.958;5.842;2022-09-27T01:11:27;4.70;;;1.00;;
39020;SDS011;25188;51.958;5.842;2022-09-27T01:31:23;6.43;;;0.73;;
39020;SDS011;25188;51.958;5.842;2022-09-27T01:39:20;4.40;;;0.67;;
39020;SDS011;25188;51.958;5.842;2022-09-27T01:42:07;5.97;;;0.80;;
39020;SDS011;25188;51.958;5.842;2022-09-27T01:45:23;4.87;;;0.80;;
39020;SDS011;25188;51.958;5.842;2022-09-27T01:47:40;3.40;;;0.60;;
39020;SDS011;25188;51.958;5.842;2022-09-27T01:50:15;6.87;;;0.53;;
39020;SDS011;25188;51.958;5.842;2022-09-27T01:52:58;4.80;;;0.57;;
39020;SDS011;25188;51.958;5.842;2022-09-27T01:55:28;4.87;;;0.70;;
39020;SDS011;25188;51.958;5.842;2022-09-27T01:57:59;8.07;;;0.60;;
39020;SDS011;25188;51.958;5.842;2022-09-27T02:00:36;3.07;;;0.70;;
39020;SDS011;25188;51.958;5.842;2022-09-27T02:03:23;6.47;;;0.93;;
39020;SDS011;25188;51.958;5.842;2022-09-27T02:05:54;6.07;;;0.80;;
39020;SDS011;25188;51.958;5.842;2022-09-27T02:10:51;7.83;;;0.57;;
39020;SDS011;25188;51.958;5.842;2022-09-27T02:13:21;9.33;;;0.80;;
39020;SDS011;25188;51.958;5.842;2022-09-27T02:15:51;3.03;;;0.80;;
39020;SDS011;25188;51.958;5.842;2022-09-27T02:21:41;7.85;;;0.82;;
39020;SDS011;25188;51.958;5.842;2022-09-27T02:24:21;5.60;;;1.13;;
39020;SDS011;25188;51.958;5.842;2022-09-27T02:27:16;3.97;;;0.73;;
39020;SDS011;25188;51.958;5.842;2022-09-27T02:29:48;4.90;;;0.40;;
39020;SDS011;25188;51.958;5.842;2022-09-27T02:32:22;4.90;;;0.43;;
39020;SDS011;25188;51.958;5.842;2022-09-27T02:34:48;4.17;;;0.50;;
39020;SDS011;25188;51.958;5.842;2022-09-27T02:37:16;5.07;;;0.40;;
39020;SDS011;25188;51.958;5.842;2022-09-27T02:39:42;4.73;;;0.40;;
39020;SDS011;25188;51.958;5.842;2022-09-27T02:42:08;2.23;;;0.53;;
39020;SDS011;25188;51.958;5.842;2022-09-27T02:44:34;3.70;;;0.70;;
39020;SDS011;25188;51.958;5.842;2022-09-27T02:47:07;3.00;;;0.40;;
39020;SDS011;25188;51.958;5.842;2022-09-27T02:52:43;4.65;;;0.50;;
39020;SDS011;25188;51.958;5.842;2022-09-27T03:00:37;3.47;;;0.60;;
39020;SDS011;25188;51.958;5.842;2022-09-27T03:03:19;8.83;;;1.17;;
39020;SDS011;25188;51.958;5.842;2022-09-27T03:06:02;3.83;;;0.60;;
39020;SDS011;25188;51.958;5.842;2022-09-27T03:08:31;6.57;;;0.97;;
39020;SDS011;25188;51.958;5.842;2022-09-27T03:10:57;6.13;;;0.53;;
39020;SDS011;25188;51.958;5.842;2022-09-27T03:13:23;6.03;;;0.60;;
39020;SDS011;25188;51.958;5.842;2022-09-27T03:15:49;7.43;;;0.90;;
39020;SDS011;25188;51.958;5.842;2022-09-27T03:18:14;4.70;;;0.60;;
39020;SDS011;25188;51.958;5.842;2022-09-27T03:20:40;4.80;;;1.20;;
39020;SDS011;25188;51.958;5.842;2022-09-27T03:23:06;11.77;;;1.23;;
39020;SDS011;25188;51.958;5.842;2022-09-27T03:25:31;4.13;;;0.67;;
39020;SDS011;25188;51.958;5.842;2022-09-27T03:27:57;6.37;;;0.47;;
39020;SDS011;25188;51.958;5.842;2022-09-27T03:30:22;5.30;;;0.63;;
39020;SDS011;25188;51.958;5.842;2022-09-27T03:32:48;5.43;;;0.90;;
39020;SDS011;25188;51.958;5.842;2022-09-27T03:35:14;5.47;;;1.67;;
39020;SDS011;25188;51.958;5.842;2022-09-27T03:37:40;8.80;;;0.70;;
39020;SDS011;25188;51.958;5.842;2022-09-27T03:40:06;9.23;;;1.00;;
39020;SDS011;25188;51.958;5.842;2022-09-27T03:42:32;10.23;;;1.00;;
39020;SDS011;25188;51.958;5.842;2022-09-27T03:44:58;3.03;;;0.60;;
39020;SDS011;25188;51.958;5.842;2022-09-27T03:47:24;7.23;;;0.70;;
39020;SDS011;25188;51.958;5.842;2022-09-27T03:49:50;6.13;;;0.70;;
39020;SDS011;25188;51.958;5.842;2022-09-27T03:52:15;5.70;;;0.60;;
39020;SDS011;25188;51.958;5.842;2022-09-27T03:54:42;3.87;;;0.50;;
39020;SDS011;25188;51.958;5.842;2022-09-27T03:57:08;4.57;;;0.70;;
39020;SDS011;25188;51.958;5.842;2022-09-27T03:59:34;5.83;;;0.80;;
39020;SDS011;25188;51.958;5.842;2022-09-27T04:02:03;7.97;;;0.60;;
39020;SDS011;25188;51.958;5.842;2022-09-27T04:04:31;7.63;;;1.03;;
39020;SDS011;25188;51.958;5.842;2022-09-27T04:06:57;8.07;;;1.20;;
39020;SDS011;25188;51.958;5.842;2022-09-27T04:09:23;9.50;;;1.10;;
39020;SDS011;25188;51.958;5.842;2022-09-27T04:11:49;10.90;;;1.07;;
39020;SDS011;25188;51.958;5.842;2022-09-27T04:14:14;11.97;;;1.10;;
39020;SDS011;25188;51.958;5.842;2022-09-27T04:16:40;8.30;;;1.97;;
39020;SDS011;25188;51.958;5.842;2022-09-27T04:19:06;5.30;;;0.90;;
39020;SDS011;25188;51.958;5.842;2022-09-27T04:21:33;4.87;;;0.83;;
39020;SDS011;25188;51.958;5.842;2022-09-27T04:23:59;6.73;;;0.97;;
39020;SDS011;25188;51.958;5.842;2022-09-27T04:26:25;9.50;;;1.23;;
39020;SDS011;25188;51.958;5.842;2022-09-27T04:28:51;5.40;;;0.80;;
39020;SDS011;25188;51.958;5.842;2022-09-27T04:31:17;6.93;;;1.13;;
39020;SDS011;25188;51.958;5.842;2022-09-27T04:33:43;9.70;;;1.93;;
39020;SDS011;25188;51.958;5.842;2022-09-27T04:36:19;11.53;;;1.30;;
39020;SDS011;25188;51.958;5.842;2022-09-27T04:38:55;9.27;;;1.00;;
39020;SDS011;25188;51.958;5.842;2022-09-27T04:41:22;8.33;;;1.90;;
39020;SDS011;25188;51.958;5.842;2022-09-27T04:43:50;7.97;;;1.37;;
39020;SDS011;25188;51.958;5.842;2022-09-27T04:46:16;7.63;;;1.00;;
39020;SDS011;25188;51.958;5.842;2022-09-27T04:48:42;13.93;;;1.60;;
39020;SDS011;25188;51.958;5.842;2022-09-27T04:51:08;9.00;;;0.93;;
39020;SDS011;25188;51.958;5.842;2022-09-27T04:53:34;10.13;;;1.27;;
39020;SDS011;25188;51.958;5.842;2022-09-27T04:56:00;9.60;;;1.20;;
39020;SDS011;25188;51.958;5.842;2022-09-27T04:58:30;7.57;;;0.80;;
39020;SDS011;25188;51.958;5.842;2022-09-27T05:00:58;8.73;;;1.37;;
39020;SDS011;25188;51.958;5.842;2022-09-27T05:03:26;10.57;;;1.07;;
39020;SDS011;25188;51.958;5.842;2022-09-27T05:05:52;8.50;;;0.97;;
39020;SDS011;25188;51.958;5.842;2022-09-27T05:08:18;12.43;;;1.50;;
39020;SDS011;25188;51.958;5.842;2022-09-27T05:10:45;6.73;;;1.00;;
39020;SDS011;25188;51.958;5.842;2022-09-27T05:13:11;7.93;;;1.53;;
39020;SDS011;25188;51.958;5.842;2022-09-27T05:15:37;12.87;;;1.60;;
39020;SDS011;25188;51.958;5.842;2022-09-27T05:18:03;7.97;;;0.87;;
39020;SDS011;25188;51.958;5.842;2022-09-27T05:20:29;8.90;;;0.83;;
39020;SDS011;25188;51.958;5.842;2022-09-27T05:22:55;6.03;;;0.63;;
39020;SDS011;25188;51.958;5.842;2022-09-27T05:25:20;7.43;;;1.00;;
39020;SDS011;25188;51.958;5.842;2022-09-27T05:27:46;6.17;;;0.60;;
39020;SDS011;25188;51.958;5.842;2022-09-27T05:30:13;3.60;;;0.53;;
39020;SDS011;25188;51.958;5.842;2022-09-27T05:32:41;8.27;;;1.00;;
39020;SDS011;25188;51.958;5.842;2022-09-27T05:35:08;7.17;;;0.70;;
39020;SDS011;25188;51.958;5.842;2022-09-27T05:37:34;5.33;;;0.60;;
39020;SDS011;25188;51.958;5.842;2022-09-27T05:40:00;3.50;;;0.93;;
39020;SDS011;25188;51.958;5.842;2022-09-27T05:42:26;6.03;;;0.87;;
39020;SDS011;25188;51.958;5.842;2022-09-27T05:44:52;4.97;;;0.80;;
39020;SDS011;25188;51.958;5.842;2022-09-27T05:47:17;4.20;;;0.77;;
39020;SDS011;25188;51.958;5.842;2022-09-27T05:49:43;9.37;;;0.97;;
39020;SDS011;25188;51.958;5.842;2022-09-27T05:52:09;5.60;;;0.60;;
39020;SDS011;25188;51.958;5.842;2022-09-27T05:54:34;6.97;;;0.60;;
39020;SDS011;25188;51.958;5.842;2022-09-27T05:57:00;5.07;;;0.83;;
39020;SDS011;25188;51.958;5.842;2022-09-27T05:59:26;9.80;;;0.97;;
39020;SDS011;25188;51.958;5.842;2022-09-27T06:01:52;4.07;;;0.57;;
39020;SDS011;25188;51.958;5.842;2022-09-27T06:04:19;4.87;;;0.50;;
39020;SDS011;25188;51.958;5.842;2022-09-27T06:06:45;7.03;;;0.97;;
39020;SDS011;25188;51.958;5.842;2022-09-27T06:09:12;3.30;;;0.50;;
39020;SDS011;25188;51.958;5.842;2022-09-27T06:11:39;3.10;;;0.60;;
39020;SDS011;25188;51.958;5.842;2022-09-27T06:14:05;2.90;;;0.67;;
39020;SDS011;25188;51.958;5.842;2022-09-27T06:16:31;3.73;;;0.53;;
39020;SDS011;25188;51.958;5.842;2022-09-27T06:18:57;6.60;;;0.80;;
39020;SDS011;25188;51.958;5.842;2022-09-27T06:21:23;6.60;;;0.70;;
39020;SDS011;25188;51.958;5.842;2022-09-27T06:23:48;3.03;;;1.20;;
39020;SDS011;25188;51.958;5.842;2022-09-27T06:26:15;6.00;;;0.70;;
39020;SDS011;25188;51.958;5.842;2022-09-27T06:28:41;6.20;;;0.90;;
39020;SDS011;25188;51.958;5.842;2022-09-27T06:31:07;3.33;;;0.50;;
39020;SDS011;25188;51.958;5.842;2022-09-27T06:33:33;1.90;;;0.30;;
39020;SDS011;25188;51.958;5.842;2022-09-27T06:36:03;4.00;;;0.60;;
39020;SDS011;25188;51.958;5.842;2022-09-27T06:38:30;4.27;;;0.60;;
39020;SDS011;25188;51.958;5.842;2022-09-27T06:40:59;5.50;;;0.70;;
39020;SDS011;25188;51.958;5.842;2022-09-27T06:43:26;5.77;;;0.77;;
39020;SDS011;25188;51.958;5.842;2022-09-27T06:45:52;2.10;;;0.60;;
39020;SDS011;25188;51.958;5.842;2022-09-27T06:48:18;3.27;;;0.80;;
39020;SDS011;25188;51.958;5.842;2022-09-27T06:50:44;2.00;;;0.60;;
39020;SDS011;25188;51.958;5.842;2022-09-27T06:53:12;3.73;;;0.60;;
39020;SDS011;25188;51.958;5.842;2022-09-27T06:55:39;1.93;;;0.50;;
39020;SDS011;25188;51.958;5.842;2022-09-27T06:58:05;5.13;;;0.70;;
39020;SDS011;25188;51.958;5.842;2022-09-27T07:00:53;3.83;;;0.80;;
39020;SDS011;25188;51.958;5.842;2022-09-27T07:03:19;3.50;;;0.80;;
39020;SDS011;25188;51.958;5.842;2022-09-27T07:05:56;4.63;;;0.50;;
39020;SDS011;25188;51.958;5.842;2022-09-27T07:08:26;4.60;;;0.70;;
39020;SDS011;25188;51.958;5.842;2022-09-27T07:10:53;2.33;;;0.60;;
39020;SDS011;25188;51.958;5.842;2022-09-27T07:13:21;4.82;;;0.68;;
39020;SDS011;25188;51.958;5.842;2022-09-27T07:15:47;4.20;;;0.63;;
39020;SDS011;25188;51.958;5.842;2022-09-27T07:18:13;3.73;;;0.60;;
39020;SDS011;25188;51.958;5.842;2022-09-27T07:20:39;2.73;;;0.60;;
39020;SDS011;25188;51.958;5.842;2022-09-27T07:23:05;6.17;;;1.00;;
39020;SDS011;25188;51.958;5.842;2022-09-27T07:25:32;2.73;;;0.90;;
39020;SDS011;25188;51.958;5.842;2022-09-27T07:28:02;7.57;;;1.43;;
39020;SDS011;25188;51.958;5.842;2022-09-27T07:30:32;3.60;;;0.98;;
39020;SDS011;25188;51.958;5.842;2022-09-27T07:32:59;2.50;;;0.60;;
39020;SDS011;25188;51.958;5.842;2022-09-27T07:35:26;4.70;;;0.93;;
39020;SDS011;25188;51.958;5.842;2022-09-27T07:37:52;6.03;;;0.80;;
39020;SDS011;25188;51.958;5.842;2022-09-27T07:40:19;12.30;;;1.17;;
39020;SDS011;25188;51.958;5.842;2022-09-27T07:42:44;6.13;;;1.00;;
39020;SDS011;25188;51.958;5.842;2022-09-27T07:45:10;3.03;;;0.67;;
39020;SDS011;25188;51.958;5.842;2022-09-27T07:47:39;3.67;;;0.70;;
39020;SDS011;25188;51.958;5.842;2022-09-27T07:50:06;1.67;;;0.50;;
39020;SDS011;25188;51.958;5.842;2022-09-27T07:52:43;5.07;;;0.80;;
39020;SDS011;25188;51.958;5.842;2022-09-27T07:55:12;6.97;;;0.80;;
39020;SDS011;25188;51.958;5.842;2022-09-27T07:57:38;4.57;;;0.63;;
39020;SDS011;25188;51.958;5.842;2022-09-27T08:00:07;2.50;;;0.50;;
39020;SDS011;25188;51.958;5.842;2022-09-27T08:02:34;4.30;;;0.50;;
39020;SDS011;25188;51.958;5.842;2022-09-27T08:05:01;6.47;;;0.40;;
39020;SDS011;25188;51.958;5.842;2022-09-27T08:07:27;3.17;;;0.50;;
39020;SDS011;25188;51.958;5.842;2022-09-27T08:09:53;5.97;;;0.67;;
39020;SDS011;25188;51.958;5.842;2022-09-27T08:12:19;2.70;;;1.10;;
39020;SDS011;25188;51.958;5.842;2022-09-27T08:14:46;2.47;;;0.50;;
39020;SDS011;25188;51.958;5.842;2022-09-27T08:17:12;4.43;;;0.93;;
39020;SDS011;25188;51.958;5.842;2022-09-27T08:19:38;4.72;;;0.73;;
39020;SDS011;25188;51.958;5.842;2022-09-27T08:22:05;3.72;;;0.75;;
39020;SDS011;25188;51.958;5.842;2022-09-27T08:24:32;4.18;;;0.75;;
39020;SDS011;25188;51.958;5.842;2022-09-27T08:26:57;5.18;;;0.80;;
39020;SDS011;25188;51.958;5.842;2022-09-27T08:29:23;5.05;;;0.90;;
39020;SDS011;25188;51.958;5.842;2022-09-27T08:31:50;3.72;;;1.00;;
39020;SDS011;25188;51.958;5.842;2022-09-27T08:34:16;5.93;;;1.10;;
39020;SDS011;25188;51.958;5.842;2022-09-27T08:36:42;4.45;;;0.93;;
39020;SDS011;25188;51.958;5.842;2022-09-27T08:39:08;3.53;;;1.50;;
39020;SDS011;25188;51.958;5.842;2022-09-27T08:41:35;6.65;;;1.52;;
39020;SDS011;25188;51.958;5.842;2022-09-27T08:44:11;5.80;;;1.43;;
39020;SDS011;25188;51.958;5.842;2022-09-27T08:49:35;6.03;;;1.50;;
39020;SDS011;25188;51.958;5.842;2022-09-27T08:52:22;3.80;;;1.20;;
39020;SDS011;25188;51.958;5.842;2022-09-27T08:54:55;3.47;;;1.03;;
39020;SDS011;25188;51.958;5.842;2022-09-27T08:57:27;3.47;;;1.30;;
39020;SDS011;25188;51.958;5.842;2022-09-27T09:00:06;4.70;;;1.50;;
39020;SDS011;25188;51.958;5.842;2022-09-27T09:02:35;3.95;;;1.17;;
39020;SDS011;25188;51.958;5.842;2022-09-27T09:05:05;4.20;;;1.52;;
39020;SDS011;25188;51.958;5.842;2022-09-27T09:10:39;3.10;;;1.00;;
39020;SDS011;25188;51.958;5.842;2022-09-27T09:19:13;2.22;;;0.70;;
39020;SDS011;25188;51.958;5.842;2022-09-27T09:24:47;6.57;;;1.10;;
39020;SDS011;25188;51.958;5.842;2022-09-27T09:35:47;4.07;;;1.48;;
39020;SDS011;25188;51.958;5.842;2022-09-27T09:38:17;4.60;;;1.30;;
39020;SDS011;25188;51.958;5.842;2022-09-27T09:40:48;3.50;;;1.13;;
39020;SDS011;25188;51.958;5.842;2022-09-27T09:43:21;5.30;;;1.90;;
39020;SDS011;25188;51.958;5.842;2022-09-27T09:45:57;3.28;;;1.20;;
39020;SDS011;25188;51.958;5.842;2022-09-27T09:48:44;3.47;;;1.20;;
39020;SDS011;25188;51.958;5.842;2022-09-27T09:51:15;6.45;;;1.20;;
39020;SDS011;25188;51.958;5.842;2022-09-27T09:53:56;5.07;;;0.88;;
39020;SDS011;25188;51.958;5.842;2022-09-27T09:56:28;4.13;;;0.60;;
39020;SDS011;25188;51.958;5.842;2022-09-27T09:58:58;3.97;;;0.98;;
39020;SDS011;25188;51.958;5.842;2022-09-27T10:01:32;4.28;;;0.40;;
39020;SDS011;25188;51.958;5.842;2022-09-27T10:04:25;4.80;;;0.55;;
39020;SDS011;25188;51.958;5.842;2022-09-27T10:06:52;3.75;;;0.60;;
39020;SDS011;25188;51.958;5.842;2022-09-27T10:09:25;4.88;;;1.00;;
39020;SDS011;25188;51.958;5.842;2022-09-27T10:11:52;2.67;;;0.50;;
39020;SDS011;25188;51.958;5.842;2022-09-27T10:14:18;2.50;;;0.47;;
39020;SDS011;25188;51.958;5.842;2022-09-27T10:16:52;4.20;;;0.40;;
39020;SDS011;25188;51.958;5.842;2022-09-27T10:19:24;2.92;;;0.73;;
39020;SDS011;25188;51.958;5.842;2022-09-27T10:21:55;2.65;;;0.30;;
39020;SDS011;25188;51.958;5.842;2022-09-27T10:27:26;3.55;;;0.40;;
39020;SDS011;25188;51.958;5.842;2022-09-27T10:30:02;2.78;;;0.50;;
39020;SDS011;25188;51.958;5.842;2022-09-27T10:32:32;2.22;;;0.45;;
39020;SDS011;25188;51.958;5.842;2022-09-27T10:38:11;2.53;;;0.30;;
39020;SDS011;25188;51.958;5.842;2022-09-27T10:40:45;2.47;;;0.40;;
39020;SDS011;25188;51.958;5.842;2022-09-27T10:43:32;4.35;;;0.40;;
39020;SDS011;25188;51.958;5.842;2022-09-27T10:46:04;1.95;;;0.20;;
39020;SDS011;25188;51.958;5.842;2022-09-27T10:48:33;2.20;;;0.30;;
39020;SDS011;25188;51.958;5.842;2022-09-27T10:51:00;2.05;;;0.20;;
39020;SDS011;25188;51.958;5.842;2022-09-27T10:53:28;2.15;;;0.22;;
39020;SDS011;25188;51.958;5.842;2022-09-27T10:55:56;5.25;;;0.40;;
39020;SDS011;25188;51.958;5.842;2022-09-27T11:01:10;1.38;;;0.30;;
39020;SDS011;25188;51.958;5.842;2022-09-27T11:03:45;2.42;;;0.40;;
39020;SDS011;25188;51.958;5.842;2022-09-27T11:06:18;5.22;;;0.50;;
39020;SDS011;25188;51.958;5.842;2022-09-27T11:08:47;2.17;;;0.40;;
39020;SDS011;25188;51.958;5.842;2022-09-27T11:11:17;1.38;;;0.30;;
39020;SDS011;25188;51.958;5.842;2022-09-27T11:19:35;3.50;;;0.35;;
39020;SDS011;25188;51.958;5.842;2022-09-27T11:40:55;3.45;;;0.30;;
39020;SDS011;25188;51.958;5.842;2022-09-27T11:54:50;3.10;;;0.30;;
39020;SDS011;25188;51.958;5.842;2022-09-27T11:57:41;0.98;;;0.20;;
39020;SDS011;25188;51.958;5.842;2022-09-27T12:00:20;4.28;;;0.30;;
39020;SDS011;25188;51.958;5.842;2022-09-27T12:08:27;2.72;;;0.30;;
39020;SDS011;25188;51.958;5.842;2022-09-27T12:16:36;1.00;;;0.20;;
39020;SDS011;25188;51.958;5.842;2022-09-27T12:19:04;1.25;;;0.25;;
39020;SDS011;25188;51.958;5.842;2022-09-27T12:21:39;0.82;;;0.20;;
39020;SDS011;25188;51.958;5.842;2022-09-27T12:24:08;3.05;;;0.30;;
39020;SDS011;25188;51.958;5.842;2022-09-27T12:26:45;1.63;;;0.63;;
39020;SDS011;25188;51.958;5.842;2022-09-27T12:29:22;0.80;;;0.13;;
39020;SDS011;25188;51.958;5.842;2022-09-27T12:37:36;0.88;;;0.10;;
39020;SDS011;25188;51.958;5.842;2022-09-27T12:51:17;1.20;;;0.25;;
39020;SDS011;25188;51.958;5.842;2022-09-27T12:57:06;1.55;;;0.30;;
39020;SDS011;25188;51.958;5.842;2022-09-27T13:14:05;1.02;;;0.10;;
39020;SDS011;25188;51.958;5.842;2022-09-27T13:16:43;1.48;;;0.20;;
39020;SDS011;25188;51.958;5.842;2022-09-27T13:19:35;1.27;;;0.30;;
39020;SDS011;25188;51.958;5.842;2022-09-27T13:22:02;3.05;;;0.60;;
39020;SDS011;25188;51.958;5.842;2022-09-27T13:35:34;3.40;;;0.55;;
39020;SDS011;25188;51.958;5.842;2022-09-27T13:38:00;1.95;;;0.20;;
39020;SDS011;25188;51.958;5.842;2022-09-27T13:40:28;0.57;;;0.17;;
39020;SDS011;25188;51.958;5.842;2022-09-27T13:45:40;2.75;;;0.30;;
39020;SDS011;25188;51.958;5.842;2022-09-27T13:51:19;2.40;;;0.30;;
39020;SDS011;25188;51.958;5.842;2022-09-27T13:57:00;1.92;;;0.20;;
39020;SDS011;25188;51.958;5.842;2022-09-27T13:59:35;2.33;;;0.32;;
39020;SDS011;25188;51.958;5.842;2022-09-27T14:04:55;4.22;;;0.30;;
39020;SDS011;25188;51.958;5.842;2022-09-27T14:07:25;1.10;;;0.30;;
39020;SDS011;25188;51.958;5.842;2022-09-27T14:12:33;1.13;;;0.50;;
39020;SDS011;25188;51.958;5.842;2022-09-27T14:15:01;1.67;;;0.28;;
39020;SDS011;25188;51.958;5.842;2022-09-27T14:17:28;1.13;;;0.32;;
39020;SDS011;25188;51.958;5.842;2022-09-27T14:19:55;1.33;;;0.20;;
39020;SDS011;25188;51.958;5.842;2022-09-27T14:22:21;1.65;;;0.20;;
39020;SDS011;25188;51.958;5.842;2022-09-27T14:24:48;2.97;;;0.28;;
39020;SDS011;25188;51.958;5.842;2022-09-27T14:27:22;1.13;;;0.20;;
39020;SDS011;25188;51.958;5.842;2022-09-27T14:30:05;2.50;;;0.30;;
39020;SDS011;25188;51.958;5.842;2022-09-27T14:32:33;2.03;;;0.30;;
39020;SDS011;25188;51.958;5.842;2022-09-27T14:38:04;2.90;;;0.30;;
39020;SDS011;25188;51.958;5.842;2022-09-27T14:40:37;1.25;;;0.30;;
39020;SDS011;25188;51.958;5.842;2022-09-27T14:43:12;3.55;;;0.28;;
39020;SDS011;25188;51.958;5.842;2022-09-27T14:45:41;1.20;;;0.20;;
39020;SDS011;25188;51.958;5.842;2022-09-27T14:48:21;1.33;;;0.30;;
39020;SDS011;25188;51.958;5.842;2022-09-27T14:50:57;1.10;;;0.20;;
39020;SDS011;25188;51.958;5.842;2022-09-27T14:53:26;1.33;;;0.30;;
39020;SDS011;25188;51.958;5.842;2022-09-27T14:55:56;1.40;;;0.30;;
39020;SDS011;25188;51.958;5.842;2022-09-27T14:58:23;0.90;;;0.20;;
39020;SDS011;25188;51.958;5.842;2022-09-27T15:00:50;1.40;;;0.30;;
39020;SDS011;25188;51.958;5.842;2022-09-27T15:03:27;2.30;;;0.25;;
39020;SDS011;25188;51.958;5.842;2022-09-27T15:05:56;0.68;;;0.15;;
39020;SDS011;25188;51.958;5.842;2022-09-27T15:08:27;2.67;;;0.30;;
39020;SDS011;25188;51.958;5.842;2022-09-27T15:11:00;0.90;;;0.30;;
39020;SDS011;25188;51.958;5.842;2022-09-27T15:13:29;1.08;;;0.22;;
39020;SDS011;25188;51.958;5.842;2022-09-27T15:15:57;1.00;;;0.30;;
39020;SDS011;25188;51.958;5.842;2022-09-27T15:18:40;1.13;;;0.20;;
39020;SDS011;25188;51.958;5.842;2022-09-27T15:21:12;2.22;;;0.30;;
39020;SDS011;25188;51.958;5.842;2022-09-27T15:23:40;1.23;;;0.20;;
39020;SDS011;25188;51.958;5.842;2022-09-27T15:28:50;0.75;;;0.25;;
39020;SDS011;25188;51.958;5.842;2022-09-27T15:31:17;3.42;;;0.40;;
39020;SDS011;25188;51.958;5.842;2022-09-27T15:33:53;1.77;;;0.32;;
39020;SDS011;25188;51.958;5.842;2022-09-27T15:39:08;4.05;;;0.40;;
39020;SDS011;25188;51.958;5.842;2022-09-27T15:44:36;2.60;;;0.30;;
39020;SDS011;25188;51.958;5.842;2022-09-27T15:55:16;1.25;;;0.40;;
39020;SDS011;25188;51.958;5.842;2022-09-27T16:00:32;2.38;;;0.40;;
39020;SDS011;25188;51.958;5.842;2022-09-27T16:02:59;2.42;;;0.50;;
39020;SDS011;25188;51.958;5.842;2022-09-27T16:05:25;3.88;;;0.50;;
39020;SDS011;25188;51.958;5.842;2022-09-27T16:07:52;3.03;;;0.52;;
39020;SDS011;25188;51.958;5.842;2022-09-27T16:10:22;1.10;;;0.45;;
39020;SDS011;25188;51.958;5.842;2022-09-27T16:12:51;3.92;;;0.77;;
39020;SDS011;25188;51.958;5.842;2022-09-27T16:15:17;1.80;;;0.45;;
39020;SDS011;25188;51.958;5.842;2022-09-27T16:17:42;1.15;;;0.40;;
39020;SDS011;25188;51.958;5.842;2022-09-27T16:20:13;2.75;;;0.52;;
39020;SDS011;25188;51.958;5.842;2022-09-27T16:22:48;3.25;;;0.63;;
39020;SDS011;25188;51.958;5.842;2022-09-27T16:25:15;1.55;;;0.60;;
39020;SDS011;25188;51.958;5.842;2022-09-27T16:27:41;5.60;;;0.70;;
39020;SDS011;25188;51.958;5.842;2022-09-27T16:30:07;3.55;;;0.80;;
39020;SDS011;25188;51.958;5.842;2022-09-27T16:32:33;2.45;;;0.57;;
39020;SDS011;25188;51.958;5.842;2022-09-27T16:35:00;2.75;;;0.70;;
39020;SDS011;25188;51.958;5.842;2022-09-27T16:37:26;9.32;;;1.10;;
39020;SDS011;25188;51.958;5.842;2022-09-27T16:39:54;7.18;;;1.02;;
39020;SDS011;25188;51.958;5.842;2022-09-27T16:42:19;4.03;;;0.60;;
39020;SDS011;25188;51.958;5.842;2022-09-27T16:44:45;3.88;;;0.70;;
39020;SDS011;25188;51.958;5.842;2022-09-27T16:47:14;2.15;;;0.60;;
39020;SDS011;25188;51.958;5.842;2022-09-27T16:49:40;3.38;;;0.95;;
39020;SDS011;25188;51.958;5.842;2022-09-27T16:52:24;2.25;;;0.70;;
39020;SDS011;25188;51.958;5.842;2022-09-27T16:54:50;2.50;;;0.80;;
39020;SDS011;25188;51.958;5.842;2022-09-27T16:57:15;3.00;;;0.50;;
39020;SDS011;25188;51.958;5.842;2022-09-27T16:59:41;1.83;;;0.47;;
39020;SDS011;25188;51.958;5.842;2022-09-27T17:02:07;2.30;;;0.70;;
39020;SDS011;25188;51.958;5.842;2022-09-27T17:04:33;2.15;;;0.77;;
39020;SDS011;25188;51.958;5.842;2022-09-27T17:07:02;5.32;;;0.55;;
39020;SDS011;25188;51.958;5.842;2022-09-27T17:09:27;3.60;;;0.50;;
39020;SDS011;25188;51.958;5.842;2022-09-27T17:11:53;2.28;;;0.55;;
39020;SDS011;25188;51.958;5.842;2022-09-27T17:14:20;2.17;;;0.50;;
39020;SDS011;25188;51.958;5.842;2022-09-27T17:16:46;2.95;;;0.60;;
39020;SDS011;25188;51.958;5.842;2022-09-27T17:19:13;2.58;;;0.45;;
39020;SDS011;25188;51.958;5.842;2022-09-27T17:21:39;3.80;;;0.52;;
39020;SDS011;25188;51.958;5.842;2022-09-27T17:24:05;1.77;;;0.50;;
39020;SDS011;25188;51.958;5.842;2022-09-27T17:26:31;2.40;;;0.40;;
39020;SDS011;25188;51.958;5.842;2022-09-27T17:28:57;2.33;;;0.40;;
39020;SDS011;25188;51.958;5.842;2022-09-27T17:31:25;4.22;;;0.80;;
39020;SDS011;25188;51.958;5.842;2022-09-27T17:33:52;3.88;;;0.80;;
39020;SDS011;25188;51.958;5.842;2022-09-27T17:36:19;2.47;;;0.50;;
39020;SDS011;25188;51.958;5.842;2022-09-27T17:38:47;3.88;;;0.60;;
39020;SDS011;25188;51.958;5.842;2022-09-27T17:41:15;2.38;;;0.50;;
39020;SDS011;25188;51.958;5.842;2022-09-27T17:43:46;2.55;;;0.40;;
39020;SDS011;25188;51.958;5.842;2022-09-27T17:46:20;1.75;;;0.50;;
39020;SDS011;25188;51.958;5.842;2022-09-27T17:48:47;3.38;;;0.50;;
39020;SDS011;25188;51.958;5.842;2022-09-27T17:51:33;1.75;;;0.40;;
39020;SDS011;25188;51.958;5.842;2022-09-27T17:54:00;3.22;;;0.40;;
39020;SDS011;25188;51.958;5.842;2022-09-27T17:56:26;4.65;;;0.63;;
39020;SDS011;25188;51.958;5.842;2022-09-27T17:58:52;4.65;;;0.60;;
39020;SDS011;25188;51.958;5.842;2022-09-27T18:01:20;2.38;;;0.65;;
39020;SDS011;25188;51.958;5.842;2022-09-27T18:03:50;3.53;;;0.63;;
39020;SDS011;25188;51.958;5.842;2022-09-27T18:06:18;3.00;;;0.70;;
39020;SDS011;25188;51.958;5.842;2022-09-27T18:08:43;4.55;;;0.98;;
39020;SDS011;25188;51.958;5.842;2022-09-27T18:11:13;3.83;;;0.50;;
39020;SDS011;25188;51.958;5.842;2022-09-27T18:13:41;5.78;;;0.60;;
39020;SDS011;25188;51.958;5.842;2022-09-27T18:16:08;2.95;;;0.60;;
39020;SDS011;25188;51.958;5.842;2022-09-27T18:18:38;8.27;;;0.70;;
39020;SDS011;25188;51.958;5.842;2022-09-27T18:21:09;2.55;;;0.65;;
39020;SDS011;25188;51.958;5.842;2022-09-27T18:23:38;4.00;;;0.77;;